sensor_id;sensor_type;location;lat;lon;timestamp;P1;durP1;ratioP1;P2;durP2;ratioP2
63699;SDS011;49845;47.130;142.766;2023-03-31T00:00:31;52.08;;;22.52;;
63699;SDS011;49845;47.130;142.766;2023-03-31T00:03:03;50.38;;;20.67;;
63699;SDS011;49845;47.130;142.766;2023-03-31T00:05:36;51.03;;;20.80;;
63699;SDS011;49845;47.130;142.766;2023-03-31T00:08:09;48.97;;;21.30;;
63699;SDS011;49845;47.130;142.766;2023-03-31T00:10:43;51.72;;;18.50;;
63699;SDS011;49845;47.130;142.766;2023-03-31T00:13:15;48.70;;;19.60;;
63699;SDS011;49845;47.130;142.766;2023-03-31T00:15:45;40.60;;;18.48;;
63699;SDS011;49845;47.130;142.766;2023-03-31T00:18:20;56.20;;;21.40;;
63699;SDS011;49845;47.130;142.766;2023-03-31T00:20:52;45.15;;;20.05;;
63699;SDS011;49845;47.130;142.766;2023-03-31T00:23:26;47.50;;;18.80;;
63699;SDS011;49845;47.130;142.766;2023-03-31T00:25:56;45.05;;;20.17;;
63699;SDS011;49845;47.130;142.766;2023-03-31T00:28:27;36.92;;;17.85;;
63699;SDS011;49845;47.130;142.766;2023-03-31T00:31:00;45.97;;;18.27;;
63699;SDS011;49845;47.130;142.766;2023-03-31T00:33:33;45.38;;;19.33;;
63699;SDS011;49845;47.130;142.766;2023-03-31T00:36:04;46.92;;;20.52;;
63699;SDS011;49845;47.130;142.766;2023-03-31T00:38:36;40.33;;;19.17;;
63699;SDS011;49845;47.130;142.766;2023-03-31T00:41:07;45.33;;;19.67;;
63699;SDS011;49845;47.130;142.766;2023-03-31T00:43:38;45.35;;;18.33;;
63699;SDS011;49845;47.130;142.766;2023-03-31T00:46:11;43.50;;;19.40;;
63699;SDS011;49845;47.130;142.766;2023-03-31T00:48:47;45.22;;;18.67;;
63699;SDS011;49845;47.130;142.766;2023-03-31T00:51:24;45.25;;;19.65;;
63699;SDS011;49845;47.130;142.766;2023-03-31T00:53:58;47.13;;;20.30;;
63699;SDS011;49845;47.130;142.766;2023-03-31T00:56:32;49.47;;;21.95;;
63699;SDS011;49845;47.130;142.766;2023-03-31T00:59:06;69.07;;;22.92;;
63699;SDS011;49845;47.130;142.766;2023-03-31T01:01:41;49.63;;;21.75;;
63699;SDS011;49845;47.130;142.766;2023-03-31T01:04:16;58.50;;;22.70;;
63699;SDS011;49845;47.130;142.766;2023-03-31T01:06:52;52.08;;;21.73;;
63699;SDS011;49845;47.130;142.766;2023-03-31T01:09:31;55.05;;;23.15;;
63699;SDS011;49845;47.130;142.766;2023-03-31T01:12:06;58.83;;;23.25;;
63699;SDS011;49845;47.130;142.766;2023-03-31T01:14:39;58.28;;;23.25;;
63699;SDS011;49845;47.130;142.766;2023-03-31T01:17:10;62.92;;;23.48;;
63699;SDS011;49845;47.130;142.766;2023-03-31T01:19:51;63.85;;;24.23;;
63699;SDS011;49845;47.130;142.766;2023-03-31T01:28:59;50.92;;;22.40;;
63699;SDS011;49845;47.130;142.766;2023-03-31T01:35:08;64.95;;;25.40;;
63699;SDS011;49845;47.130;142.766;2023-03-31T01:38:12;63.17;;;25.13;;
63699;SDS011;49845;47.130;142.766;2023-03-31T01:44:05;56.50;;;23.83;;
63699;SDS011;49845;47.130;142.766;2023-03-31T01:46:47;66.35;;;23.77;;
63699;SDS011;49845;47.130;142.766;2023-03-31T01:49:23;58.30;;;23.92;;
63699;SDS011;49845;47.130;142.766;2023-03-31T01:52:02;50.88;;;22.02;;
63699;SDS011;49845;47.130;142.766;2023-03-31T01:54:37;50.38;;;24.15;;
63699;SDS011;49845;47.130;142.766;2023-03-31T01:57:15;51.17;;;24.50;;
63699;SDS011;49845;47.130;142.766;2023-03-31T01:59:53;63.88;;;26.20;;
63699;SDS011;49845;47.130;142.766;2023-03-31T02:02:28;56.20;;;22.60;;
63699;SDS011;49845;47.130;142.766;2023-03-31T02:05:06;53.47;;;22.55;;
63699;SDS011;49845;47.130;142.766;2023-03-31T02:07:43;58.53;;;24.13;;
63699;SDS011;49845;47.130;142.766;2023-03-31T02:10:18;51.17;;;24.40;;
63699;SDS011;49845;47.130;142.766;2023-03-31T02:12:52;54.90;;;24.52;;
63699;SDS011;49845;47.130;142.766;2023-03-31T02:15:26;49.53;;;23.55;;
63699;SDS011;49845;47.130;142.766;2023-03-31T02:18:01;51.42;;;24.15;;
63699;SDS011;49845;47.130;142.766;2023-03-31T02:20:38;49.47;;;21.85;;
63699;SDS011;49845;47.130;142.766;2023-03-31T02:23:11;45.95;;;21.70;;
63699;SDS011;49845;47.130;142.766;2023-03-31T02:25:44;47.25;;;20.10;;
63699;SDS011;49845;47.130;142.766;2023-03-31T02:28:20;49.95;;;20.75;;
63699;SDS011;49845;47.130;142.766;2023-03-31T02:30:53;40.28;;;19.67;;
63699;SDS011;49845;47.130;142.766;2023-03-31T02:33:34;40.33;;;18.70;;
63699;SDS011;49845;47.130;142.766;2023-03-31T02:36:05;43.53;;;17.88;;
63699;SDS011;49845;47.130;142.766;2023-03-31T02:38:37;37.80;;;17.00;;
63699;SDS011;49845;47.130;142.766;2023-03-31T02:41:11;46.63;;;20.52;;
63699;SDS011;49845;47.130;142.766;2023-03-31T02:43:44;46.45;;;21.33;;
63699;SDS011;49845;47.130;142.766;2023-03-31T02:46:14;37.22;;;18.88;;
63699;SDS011;49845;47.130;142.766;2023-03-31T02:48:45;41.38;;;19.08;;
63699;SDS011;49845;47.130;142.766;2023-03-31T03:00:29;38.10;;;18.38;;
63699;SDS011;49845;47.130;142.766;2023-03-31T03:03:12;33.60;;;16.55;;
63699;SDS011;49845;47.130;142.766;2023-03-31T03:05:57;34.13;;;17.75;;
63699;SDS011;49845;47.130;142.766;2023-03-31T03:08:37;35.70;;;18.08;;
63699;SDS011;49845;47.130;142.766;2023-03-31T03:11:24;35.28;;;17.48;;
63699;SDS011;49845;47.130;142.766;2023-03-31T03:14:03;32.90;;;15.75;;
63699;SDS011;49845;47.130;142.766;2023-03-31T03:16:39;27.70;;;13.15;;
63699;SDS011;49845;47.130;142.766;2023-03-31T03:19:17;29.50;;;13.55;;
63699;SDS011;49845;47.130;142.766;2023-03-31T03:21:49;28.05;;;12.60;;
63699;SDS011;49845;47.130;142.766;2023-03-31T03:24:19;33.78;;;13.00;;
63699;SDS011;49845;47.130;142.766;2023-03-31T03:26:50;23.38;;;12.70;;
63699;SDS011;49845;47.130;142.766;2023-03-31T03:29:21;30.67;;;12.10;;
63699;SDS011;49845;47.130;142.766;2023-03-31T03:31:55;20.95;;;12.25;;
63699;SDS011;49845;47.130;142.766;2023-03-31T03:34:25;24.98;;;12.18;;
63699;SDS011;49845;47.130;142.766;2023-03-31T03:36:56;19.58;;;12.10;;
63699;SDS011;49845;47.130;142.766;2023-03-31T03:39:26;19.80;;;11.70;;
63699;SDS011;49845;47.130;142.766;2023-03-31T03:41:57;24.88;;;11.73;;
63699;SDS011;49845;47.130;142.766;2023-03-31T03:44:27;22.73;;;12.73;;
63699;SDS011;49845;47.130;142.766;2023-03-31T03:47:00;22.50;;;12.10;;
63699;SDS011;49845;47.130;142.766;2023-03-31T03:49:30;22.17;;;11.05;;
63699;SDS011;49845;47.130;142.766;2023-03-31T03:52:01;27.25;;;13.30;;
63699;SDS011;49845;47.130;142.766;2023-03-31T03:54:31;27.70;;;12.90;;
63699;SDS011;49845;47.130;142.766;2023-03-31T03:57:02;29.83;;;12.80;;
63699;SDS011;49845;47.130;142.766;2023-03-31T03:59:34;34.60;;;14.55;;
63699;SDS011;49845;47.130;142.766;2023-03-31T04:02:06;29.35;;;13.60;;
63699;SDS011;49845;47.130;142.766;2023-03-31T04:04:36;28.85;;;13.05;;
63699;SDS011;49845;47.130;142.766;2023-03-31T04:07:07;25.42;;;11.50;;
63699;SDS011;49845;47.130;142.766;2023-03-31T04:09:38;26.17;;;11.68;;
63699;SDS011;49845;47.130;142.766;2023-03-31T04:12:08;22.42;;;11.50;;
63699;SDS011;49845;47.130;142.766;2023-03-31T04:14:39;23.75;;;13.35;;
63699;SDS011;49845;47.130;142.766;2023-03-31T04:17:11;31.23;;;14.30;;
63699;SDS011;49845;47.130;142.766;2023-03-31T04:19:42;33.47;;;15.82;;
63699;SDS011;49845;47.130;142.766;2023-03-31T04:22:17;43.03;;;19.65;;
63699;SDS011;49845;47.130;142.766;2023-03-31T04:24:48;44.42;;;19.60;;
63699;SDS011;49845;47.130;142.766;2023-03-31T04:27:19;54.53;;;21.65;;
63699;SDS011;49845;47.130;142.766;2023-03-31T04:29:54;48.00;;;19.15;;
63699;SDS011;49845;47.130;142.766;2023-03-31T04:32:26;49.35;;;18.23;;
63699;SDS011;49845;47.130;142.766;2023-03-31T04:34:59;56.95;;;20.05;;
63699;SDS011;49845;47.130;142.766;2023-03-31T04:37:31;49.05;;;19.45;;
63699;SDS011;49845;47.130;142.766;2023-03-31T04:40:05;51.97;;;21.38;;
63699;SDS011;49845;47.130;142.766;2023-03-31T04:42:37;38.78;;;16.63;;
63699;SDS011;49845;47.130;142.766;2023-03-31T04:45:08;55.38;;;20.05;;
63699;SDS011;49845;47.130;142.766;2023-03-31T04:47:41;26.13;;;13.88;;
63699;SDS011;49845;47.130;142.766;2023-03-31T04:50:12;28.75;;;11.77;;
63699;SDS011;49845;47.130;142.766;2023-03-31T04:52:43;30.23;;;12.70;;
63699;SDS011;49845;47.130;142.766;2023-03-31T04:55:13;22.48;;;11.38;;
63699;SDS011;49845;47.130;142.766;2023-03-31T04:57:44;15.57;;;8.30;;
63699;SDS011;49845;47.130;142.766;2023-03-31T05:00:15;15.70;;;8.00;;
63699;SDS011;49845;47.130;142.766;2023-03-31T05:02:48;12.30;;;6.25;;
63699;SDS011;49845;47.130;142.766;2023-03-31T05:05:19;15.38;;;6.95;;
63699;SDS011;49845;47.130;142.766;2023-03-31T05:07:49;10.98;;;6.68;;
63699;SDS011;49845;47.130;142.766;2023-03-31T05:10:20;14.40;;;8.15;;
63699;SDS011;49845;47.130;142.766;2023-03-31T05:12:51;11.88;;;6.88;;
63699;SDS011;49845;47.130;142.766;2023-03-31T05:15:21;12.05;;;8.18;;
63699;SDS011;49845;47.130;142.766;2023-03-31T05:17:54;14.77;;;7.03;;
63699;SDS011;49845;47.130;142.766;2023-03-31T05:20:27;11.90;;;7.13;;
63699;SDS011;49845;47.130;142.766;2023-03-31T05:22:57;11.52;;;7.18;;
63699;SDS011;49845;47.130;142.766;2023-03-31T05:25:28;12.80;;;7.53;;
63699;SDS011;49845;47.130;142.766;2023-03-31T05:27:59;12.65;;;8.07;;
63699;SDS011;49845;47.130;142.766;2023-03-31T05:30:30;16.35;;;8.63;;
63699;SDS011;49845;47.130;142.766;2023-03-31T05:33:02;13.23;;;8.40;;
63699;SDS011;49845;47.130;142.766;2023-03-31T05:35:33;11.48;;;7.82;;
63699;SDS011;49845;47.130;142.766;2023-03-31T05:38:04;13.38;;;7.47;;
63699;SDS011;49845;47.130;142.766;2023-03-31T05:40:34;12.32;;;6.95;;
63699;SDS011;49845;47.130;142.766;2023-03-31T05:43:05;12.60;;;7.07;;
63699;SDS011;49845;47.130;142.766;2023-03-31T05:45:35;10.13;;;6.38;;
63699;SDS011;49845;47.130;142.766;2023-03-31T05:48:08;12.18;;;7.22;;
63699;SDS011;49845;47.130;142.766;2023-03-31T05:50:38;12.05;;;7.32;;
63699;SDS011;49845;47.130;142.766;2023-03-31T05:53:09;11.45;;;7.15;;
63699;SDS011;49845;47.130;142.766;2023-03-31T05:55:40;12.48;;;6.78;;
63699;SDS011;49845;47.130;142.766;2023-03-31T05:58:10;9.80;;;6.15;;
63699;SDS011;49845;47.130;142.766;2023-03-31T06:00:41;10.77;;;6.10;;
63699;SDS011;49845;47.130;142.766;2023-03-31T06:03:14;12.07;;;6.55;;
63699;SDS011;49845;47.130;142.766;2023-03-31T06:05:46;10.43;;;6.55;;
63699;SDS011;49845;47.130;142.766;2023-03-31T06:08:20;10.60;;;6.18;;
63699;SDS011;49845;47.130;142.766;2023-03-31T06:10:51;12.32;;;6.72;;
63699;SDS011;49845;47.130;142.766;2023-03-31T06:13:22;14.27;;;8.32;;
63699;SDS011;49845;47.130;142.766;2023-03-31T06:15:53;12.00;;;7.32;;
63699;SDS011;49845;47.130;142.766;2023-03-31T06:18:26;13.93;;;8.57;;
63699;SDS011;49845;47.130;142.766;2023-03-31T06:20:57;12.98;;;8.05;;
63699;SDS011;49845;47.130;142.766;2023-03-31T06:23:28;13.20;;;8.85;;
63699;SDS011;49845;47.130;142.766;2023-03-31T06:25:59;17.00;;;9.18;;
63699;SDS011;49845;47.130;142.766;2023-03-31T06:28:31;15.25;;;7.65;;
63699;SDS011;49845;47.130;142.766;2023-03-31T06:31:02;14.63;;;8.40;;
63699;SDS011;49845;47.130;142.766;2023-03-31T06:33:36;13.00;;;7.88;;
63699;SDS011;49845;47.130;142.766;2023-03-31T06:36:07;13.93;;;8.45;;
63699;SDS011;49845;47.130;142.766;2023-03-31T06:38:39;14.07;;;7.70;;
63699;SDS011;49845;47.130;142.766;2023-03-31T06:41:11;9.88;;;6.35;;
63699;SDS011;49845;47.130;142.766;2023-03-31T06:43:43;8.27;;;5.25;;
63699;SDS011;49845;47.130;142.766;2023-03-31T06:46:14;7.43;;;5.00;;
63699;SDS011;49845;47.130;142.766;2023-03-31T06:48:46;6.80;;;4.93;;
63699;SDS011;49845;47.130;142.766;2023-03-31T06:51:17;6.13;;;4.22;;
63699;SDS011;49845;47.130;142.766;2023-03-31T06:53:48;7.18;;;4.97;;
63699;SDS011;49845;47.130;142.766;2023-03-31T06:56:19;10.65;;;5.22;;
63699;SDS011;49845;47.130;142.766;2023-03-31T06:58:49;8.80;;;4.97;;
63699;SDS011;49845;47.130;142.766;2023-03-31T07:01:20;6.95;;;4.75;;
63699;SDS011;49845;47.130;142.766;2023-03-31T07:03:52;5.75;;;3.97;;
63699;SDS011;49845;47.130;142.766;2023-03-31T07:06:23;4.70;;;2.53;;
63699;SDS011;49845;47.130;142.766;2023-03-31T07:08:56;5.32;;;3.65;;
63699;SDS011;49845;47.130;142.766;2023-03-31T07:11:31;6.03;;;3.40;;
63699;SDS011;49845;47.130;142.766;2023-03-31T07:14:01;6.15;;;3.60;;
63699;SDS011;49845;47.130;142.766;2023-03-31T07:16:33;6.55;;;3.70;;
63699;SDS011;49845;47.130;142.766;2023-03-31T07:19:06;3.53;;;2.72;;
63699;SDS011;49845;47.130;142.766;2023-03-31T07:21:37;4.40;;;2.90;;
63699;SDS011;49845;47.130;142.766;2023-03-31T07:24:08;5.75;;;3.67;;
63699;SDS011;49845;47.130;142.766;2023-03-31T07:26:41;4.70;;;3.15;;
63699;SDS011;49845;47.130;142.766;2023-03-31T07:29:12;4.22;;;3.00;;
63699;SDS011;49845;47.130;142.766;2023-03-31T07:31:43;5.88;;;3.38;;
63699;SDS011;49845;47.130;142.766;2023-03-31T07:34:17;4.22;;;3.22;;
63699;SDS011;49845;47.130;142.766;2023-03-31T07:36:48;8.25;;;4.22;;
63699;SDS011;49845;47.130;142.766;2023-03-31T07:39:20;6.82;;;4.35;;
63699;SDS011;49845;47.130;142.766;2023-03-31T07:41:50;6.68;;;4.20;;
63699;SDS011;49845;47.130;142.766;2023-03-31T07:44:21;6.30;;;3.95;;
63699;SDS011;49845;47.130;142.766;2023-03-31T07:46:52;8.75;;;4.60;;
63699;SDS011;49845;47.130;142.766;2023-03-31T07:49:24;8.88;;;5.00;;
63699;SDS011;49845;47.130;142.766;2023-03-31T07:51:54;7.90;;;4.60;;
63699;SDS011;49845;47.130;142.766;2023-03-31T07:54:25;11.43;;;4.68;;
63699;SDS011;49845;47.130;142.766;2023-03-31T07:56:58;7.32;;;3.97;;
63699;SDS011;49845;47.130;142.766;2023-03-31T07:59:30;8.38;;;4.97;;
63699;SDS011;49845;47.130;142.766;2023-03-31T08:02:01;9.18;;;4.95;;
63699;SDS011;49845;47.130;142.766;2023-03-31T08:04:34;7.07;;;3.63;;
63699;SDS011;49845;47.130;142.766;2023-03-31T08:07:04;6.15;;;4.30;;
63699;SDS011;49845;47.130;142.766;2023-03-31T08:09:36;7.43;;;4.55;;
63699;SDS011;49845;47.130;142.766;2023-03-31T08:12:07;6.90;;;3.58;;
63699;SDS011;49845;47.130;142.766;2023-03-31T08:14:37;5.47;;;3.70;;
63699;SDS011;49845;47.130;142.766;2023-03-31T08:17:11;6.43;;;4.60;;
63699;SDS011;49845;47.130;142.766;2023-03-31T08:19:43;6.68;;;3.88;;
63699;SDS011;49845;47.130;142.766;2023-03-31T08:22:14;5.82;;;3.78;;
63699;SDS011;49845;47.130;142.766;2023-03-31T08:24:46;6.93;;;3.95;;
63699;SDS011;49845;47.130;142.766;2023-03-31T08:27:18;6.05;;;3.60;;
63699;SDS011;49845;47.130;142.766;2023-03-31T08:29:56;6.18;;;3.78;;
63699;SDS011;49845;47.130;142.766;2023-03-31T08:32:31;5.00;;;3.90;;
63699;SDS011;49845;47.130;142.766;2023-03-31T08:35:07;5.65;;;3.65;;
63699;SDS011;49845;47.130;142.766;2023-03-31T08:37:37;5.93;;;3.80;;
63699;SDS011;49845;47.130;142.766;2023-03-31T08:40:14;8.77;;;4.45;;
63699;SDS011;49845;47.130;142.766;2023-03-31T08:42:48;6.50;;;4.05;;
63699;SDS011;49845;47.130;142.766;2023-03-31T08:45:23;9.13;;;5.40;;
63699;SDS011;49845;47.130;142.766;2023-03-31T08:47:59;9.40;;;5.88;;
63699;SDS011;49845;47.130;142.766;2023-03-31T08:50:37;10.98;;;5.47;;
63699;SDS011;49845;47.130;142.766;2023-03-31T08:53:17;6.80;;;4.55;;
63699;SDS011;49845;47.130;142.766;2023-03-31T08:55:55;11.30;;;4.55;;
63699;SDS011;49845;47.130;142.766;2023-03-31T08:58:30;10.25;;;3.88;;
63699;SDS011;49845;47.130;142.766;2023-03-31T09:01:10;10.73;;;4.80;;
63699;SDS011;49845;47.130;142.766;2023-03-31T09:03:55;16.05;;;5.32;;
63699;SDS011;49845;47.130;142.766;2023-03-31T09:06:47;9.95;;;5.15;;
63699;SDS011;49845;47.130;142.766;2023-03-31T09:09:24;13.15;;;6.15;;
63699;SDS011;49845;47.130;142.766;2023-03-31T09:12:06;12.10;;;4.97;;
63699;SDS011;49845;47.130;142.766;2023-03-31T09:14:47;18.58;;;7.25;;
63699;SDS011;49845;47.130;142.766;2023-03-31T09:17:29;8.15;;;4.20;;
63699;SDS011;49845;47.130;142.766;2023-03-31T09:20:04;6.45;;;4.30;;
63699;SDS011;49845;47.130;142.766;2023-03-31T09:22:47;17.75;;;7.95;;
63699;SDS011;49845;47.130;142.766;2023-03-31T09:25:22;11.23;;;5.32;;
63699;SDS011;49845;47.130;142.766;2023-03-31T09:27:55;11.35;;;6.90;;
63699;SDS011;49845;47.130;142.766;2023-03-31T09:33:22;5.70;;;3.80;;
63699;SDS011;49845;47.130;142.766;2023-03-31T09:35:58;7.68;;;3.78;;
63699;SDS011;49845;47.130;142.766;2023-03-31T09:38:32;7.45;;;3.00;;
63699;SDS011;49845;47.130;142.766;2023-03-31T09:41:03;4.97;;;2.88;;
63699;SDS011;49845;47.130;142.766;2023-03-31T09:43:35;5.50;;;3.22;;
63699;SDS011;49845;47.130;142.766;2023-03-31T09:46:14;5.68;;;3.15;;
63699;SDS011;49845;47.130;142.766;2023-03-31T09:48:51;5.53;;;3.47;;
63699;SDS011;49845;47.130;142.766;2023-03-31T09:51:29;7.15;;;3.20;;
63699;SDS011;49845;47.130;142.766;2023-03-31T09:54:15;5.85;;;3.70;;
63699;SDS011;49845;47.130;142.766;2023-03-31T09:56:56;6.35;;;3.40;;
63699;SDS011;49845;47.130;142.766;2023-03-31T09:59:34;5.97;;;3.33;;
63699;SDS011;49845;47.130;142.766;2023-03-31T10:02:28;4.30;;;3.35;;
63699;SDS011;49845;47.130;142.766;2023-03-31T10:05:17;4.28;;;3.40;;
63699;SDS011;49845;47.130;142.766;2023-03-31T10:08:13;7.55;;;3.60;;
63699;SDS011;49845;47.130;142.766;2023-03-31T10:10:56;5.93;;;3.50;;
63699;SDS011;49845;47.130;142.766;2023-03-31T10:13:43;11.70;;;6.13;;
63699;SDS011;49845;47.130;142.766;2023-03-31T10:16:27;5.97;;;4.07;;
63699;SDS011;49845;47.130;142.766;2023-03-31T10:21:55;7.95;;;3.95;;
63699;SDS011;49845;47.130;142.766;2023-03-31T10:24:27;4.72;;;3.40;;
63699;SDS011;49845;47.130;142.766;2023-03-31T10:27:12;3.53;;;2.72;;
63699;SDS011;49845;47.130;142.766;2023-03-31T10:29:50;3.83;;;2.60;;
63699;SDS011;49845;47.130;142.766;2023-03-31T10:32:26;4.93;;;3.22;;
63699;SDS011;49845;47.130;142.766;2023-03-31T10:35:02;3.25;;;2.33;;
63699;SDS011;49845;47.130;142.766;2023-03-31T10:37:34;4.80;;;3.00;;
63699;SDS011;49845;47.130;142.766;2023-03-31T10:40:12;4.10;;;3.17;;
63699;SDS011;49845;47.130;142.766;2023-03-31T10:42:57;4.20;;;2.88;;
63699;SDS011;49845;47.130;142.766;2023-03-31T10:45:30;4.50;;;3.40;;
63699;SDS011;49845;47.130;142.766;2023-03-31T10:48:09;5.07;;;2.50;;
63699;SDS011;49845;47.130;142.766;2023-03-31T10:50:53;5.40;;;2.97;;
63699;SDS011;49845;47.130;142.766;2023-03-31T10:53:27;4.25;;;3.30;;
63699;SDS011;49845;47.130;142.766;2023-03-31T10:56:06;4.57;;;3.25;;
63699;SDS011;49845;47.130;142.766;2023-03-31T10:58:55;5.93;;;3.38;;
63699;SDS011;49845;47.130;142.766;2023-03-31T11:01:39;5.20;;;3.53;;
63699;SDS011;49845;47.130;142.766;2023-03-31T11:07:34;6.25;;;3.70;;
63699;SDS011;49845;47.130;142.766;2023-03-31T11:10:26;8.13;;;3.50;;
63699;SDS011;49845;47.130;142.766;2023-03-31T11:15:41;5.97;;;3.67;;
63699;SDS011;49845;47.130;142.766;2023-03-31T11:18:27;6.20;;;3.50;;
63699;SDS011;49845;47.130;142.766;2023-03-31T11:21:12;6.40;;;3.95;;
63699;SDS011;49845;47.130;142.766;2023-03-31T11:23:56;7.70;;;4.45;;
63699;SDS011;49845;47.130;142.766;2023-03-31T11:26:38;6.28;;;3.58;;
63699;SDS011;49845;47.130;142.766;2023-03-31T11:29:23;7.80;;;3.78;;
63699;SDS011;49845;47.130;142.766;2023-03-31T11:32:07;7.97;;;4.43;;
63699;SDS011;49845;47.130;142.766;2023-03-31T11:35:00;8.00;;;4.15;;
63699;SDS011;49845;47.130;142.766;2023-03-31T11:37:47;6.95;;;4.40;;
63699;SDS011;49845;47.130;142.766;2023-03-31T11:40:31;5.75;;;3.95;;
63699;SDS011;49845;47.130;142.766;2023-03-31T11:43:10;7.00;;;4.65;;
63699;SDS011;49845;47.130;142.766;2023-03-31T11:45:46;6.68;;;4.20;;
63699;SDS011;49845;47.130;142.766;2023-03-31T11:48:25;8.73;;;4.47;;
63699;SDS011;49845;47.130;142.766;2023-03-31T11:51:06;7.22;;;4.35;;
63699;SDS011;49845;47.130;142.766;2023-03-31T11:53:43;6.68;;;4.22;;
63699;SDS011;49845;47.130;142.766;2023-03-31T11:56:17;6.35;;;4.18;;
63699;SDS011;49845;47.130;142.766;2023-03-31T11:58:50;6.13;;;4.30;;
63699;SDS011;49845;47.130;142.766;2023-03-31T12:01:24;5.10;;;3.92;;
63699;SDS011;49845;47.130;142.766;2023-03-31T12:04:05;8.35;;;4.20;;
63699;SDS011;49845;47.130;142.766;2023-03-31T12:06:52;6.50;;;3.58;;
63699;SDS011;49845;47.130;142.766;2023-03-31T12:09:31;5.13;;;3.97;;
63699;SDS011;49845;47.130;142.766;2023-03-31T12:12:08;9.52;;;3.95;;
63699;SDS011;49845;47.130;142.766;2023-03-31T12:14:46;7.97;;;3.75;;
63699;SDS011;49845;47.130;142.766;2023-03-31T12:17:25;5.15;;;3.10;;
63699;SDS011;49845;47.130;142.766;2023-03-31T12:19:58;7.25;;;3.55;;
63699;SDS011;49845;47.130;142.766;2023-03-31T12:22:34;6.85;;;3.03;;
63699;SDS011;49845;47.130;142.766;2023-03-31T12:25:10;5.85;;;3.30;;
63699;SDS011;49845;47.130;142.766;2023-03-31T12:27:42;6.18;;;3.47;;
63699;SDS011;49845;47.130;142.766;2023-03-31T12:30:17;5.47;;;3.10;;
63699;SDS011;49845;47.130;142.766;2023-03-31T12:32:58;5.03;;;3.03;;
63699;SDS011;49845;47.130;142.766;2023-03-31T12:35:40;7.00;;;3.53;;
63699;SDS011;49845;47.130;142.766;2023-03-31T12:38:26;5.38;;;3.40;;
63699;SDS011;49845;47.130;142.766;2023-03-31T12:41:07;6.97;;;3.92;;
63699;SDS011;49845;47.130;142.766;2023-03-31T12:43:59;6.70;;;3.20;;
63699;SDS011;49845;47.130;142.766;2023-03-31T12:46:44;7.30;;;3.53;;
63699;SDS011;49845;47.130;142.766;2023-03-31T12:52:31;5.97;;;3.60;;
63699;SDS011;49845;47.130;142.766;2023-03-31T13:01:08;6.32;;;3.05;;
63699;SDS011;49845;47.130;142.766;2023-03-31T13:03:47;4.90;;;3.30;;
63699;SDS011;49845;47.130;142.766;2023-03-31T13:09:41;5.60;;;3.33;;
63699;SDS011;49845;47.130;142.766;2023-03-31T13:12:14;5.72;;;3.00;;
63699;SDS011;49845;47.130;142.766;2023-03-31T13:14:50;4.05;;;3.08;;
63699;SDS011;49845;47.130;142.766;2023-03-31T13:17:29;3.72;;;2.92;;
63699;SDS011;49845;47.130;142.766;2023-03-31T13:20:15;4.05;;;2.92;;
63699;SDS011;49845;47.130;142.766;2023-03-31T13:23:00;5.68;;;3.00;;
63699;SDS011;49845;47.130;142.766;2023-03-31T13:25:38;5.25;;;2.40;;
63699;SDS011;49845;47.130;142.766;2023-03-31T13:28:24;6.10;;;2.88;;
63699;SDS011;49845;47.130;142.766;2023-03-31T13:31:11;5.57;;;3.38;;
63699;SDS011;49845;47.130;142.766;2023-03-31T13:33:45;3.28;;;2.28;;
63699;SDS011;49845;47.130;142.766;2023-03-31T13:36:47;3.22;;;2.50;;
63699;SDS011;49845;47.130;142.766;2023-03-31T13:45:57;3.47;;;2.83;;
63699;SDS011;49845;47.130;142.766;2023-03-31T13:48:50;5.60;;;3.97;;
63699;SDS011;49845;47.130;142.766;2023-03-31T13:54:27;6.63;;;3.85;;
63699;SDS011;49845;47.130;142.766;2023-03-31T14:01:20;9.15;;;4.20;;
63699;SDS011;49845;47.130;142.766;2023-03-31T14:04:10;7.72;;;3.80;;
63699;SDS011;49845;47.130;142.766;2023-03-31T14:06:51;7.50;;;4.60;;
63699;SDS011;49845;47.130;142.766;2023-03-31T14:09:27;8.65;;;4.95;;
63699;SDS011;49845;47.130;142.766;2023-03-31T14:14:52;10.55;;;5.65;;
63699;SDS011;49845;47.130;142.766;2023-03-31T14:17:29;10.68;;;5.57;;
63699;SDS011;49845;47.130;142.766;2023-03-31T14:20:24;11.02;;;6.55;;
63699;SDS011;49845;47.130;142.766;2023-03-31T14:23:15;9.75;;;5.82;;
63699;SDS011;49845;47.130;142.766;2023-03-31T14:26:06;9.07;;;4.72;;
63699;SDS011;49845;47.130;142.766;2023-03-31T14:29:12;9.07;;;5.57;;
63699;SDS011;49845;47.130;142.766;2023-03-31T14:31:49;15.40;;;7.22;;
63699;SDS011;49845;47.130;142.766;2023-03-31T14:34:41;15.60;;;7.10;;
63699;SDS011;49845;47.130;142.766;2023-03-31T14:37:31;13.32;;;6.93;;
63699;SDS011;49845;47.130;142.766;2023-03-31T14:40:09;21.70;;;7.72;;
63699;SDS011;49845;47.130;142.766;2023-03-31T14:42:48;16.20;;;5.63;;
63699;SDS011;49845;47.130;142.766;2023-03-31T14:45:20;21.92;;;8.43;;
63699;SDS011;49845;47.130;142.766;2023-03-31T14:47:54;16.58;;;6.78;;
63699;SDS011;49845;47.130;142.766;2023-03-31T14:50:32;19.10;;;8.15;;
63699;SDS011;49845;47.130;142.766;2023-03-31T14:53:15;26.10;;;6.75;;
63699;SDS011;49845;47.130;142.766;2023-03-31T14:56:02;13.80;;;7.32;;
63699;SDS011;49845;47.130;142.766;2023-03-31T14:58:53;18.45;;;6.90;;
63699;SDS011;49845;47.130;142.766;2023-03-31T15:01:42;15.43;;;4.68;;
63699;SDS011;49845;47.130;142.766;2023-03-31T15:04:19;19.25;;;8.30;;
63699;SDS011;49845;47.130;142.766;2023-03-31T15:10:41;15.63;;;5.90;;
63699;SDS011;49845;47.130;142.766;2023-03-31T15:13:58;24.65;;;8.57;;
63699;SDS011;49845;47.130;142.766;2023-03-31T15:16:53;23.17;;;7.72;;
63699;SDS011;49845;47.130;142.766;2023-03-31T15:19:43;19.40;;;8.15;;
63699;SDS011;49845;47.130;142.766;2023-03-31T15:22:18;30.80;;;8.68;;
63699;SDS011;49845;47.130;142.766;2023-03-31T15:24:58;18.88;;;6.65;;
63699;SDS011;49845;47.130;142.766;2023-03-31T15:31:25;17.98;;;5.68;;
63699;SDS011;49845;47.130;142.766;2023-03-31T15:34:18;13.73;;;6.07;;
63699;SDS011;49845;47.130;142.766;2023-03-31T15:36:58;12.00;;;6.22;;
63699;SDS011;49845;47.130;142.766;2023-03-31T15:39:47;7.25;;;4.00;;
63699;SDS011;49845;47.130;142.766;2023-03-31T15:42:22;12.52;;;6.80;;
63699;SDS011;49845;47.130;142.766;2023-03-31T15:45:51;12.48;;;5.68;;
63699;SDS011;49845;47.130;142.766;2023-03-31T15:48:27;12.45;;;5.57;;
63699;SDS011;49845;47.130;142.766;2023-03-31T15:51:17;15.00;;;5.47;;
63699;SDS011;49845;47.130;142.766;2023-03-31T15:54:10;11.65;;;4.30;;
63699;SDS011;49845;47.130;142.766;2023-03-31T15:57:40;10.30;;;4.50;;
63699;SDS011;49845;47.130;142.766;2023-03-31T16:01:29;10.30;;;4.68;;
63699;SDS011;49845;47.130;142.766;2023-03-31T16:04:41;13.68;;;4.22;;
63699;SDS011;49845;47.130;142.766;2023-03-31T16:07:22;14.10;;;4.82;;
63699;SDS011;49845;47.130;142.766;2023-03-31T16:10:29;15.52;;;6.03;;
63699;SDS011;49845;47.130;142.766;2023-03-31T16:13:11;18.67;;;5.70;;
63699;SDS011;49845;47.130;142.766;2023-03-31T16:16:03;10.85;;;5.10;;
63699;SDS011;49845;47.130;142.766;2023-03-31T16:18:44;7.90;;;3.72;;